Airfield :
LOGIN :

Register | Disclaimer

   EN    FR    IT 

 










Legend :    VFR   Marginal VFR   IFR   Intensive IFR   Very Intensive IFR
Visi :
Ceiling :
>= 8 km
>= 3000ft
5 to 8 km
1000 to 3000 ft
1500m to 5 km
500 to 1000 ft
800 to 1500m
200 to 500 ft
< 800m
< 200 ft
Symbols :   Thunderstorms  Fog  Heavy snow  Heavy precipitations  Wind > 20 kt
SIGMETs :     Misc.  Thunderstorms  Icing  Turbulence  Mountain Waves  Volcanic Ashes







- Airport Elevation : 126 ft
- IATA code : WIC
- Download approach charts


EGPC - Wick

CURRENT METAR :
  • 211150Z 33033KT 9999 FEW008 11/06 Q1022

EXPIRED METARs :
  • 211120Z 32030G41KT 9999 FEW008 11/06 Q1022
  • 211050Z 33028G39KT 9999 -SHRA FEW010 10/05 Q1022
  • 211020Z 34030G41KT 9999 VCSH FEW012 11/07 Q1022
  • 210950Z 33027KT 9999 VCSH FEW008 SCT012 11/07 Q1022
  • 210920Z 33029KT 9999 VCSH FEW008 SCT014 11/07 Q1021

TAF TAF EGPC
Valid from the 21 at 12:00 until the 21 at 21:00 UTC


211100Z 2112/2121 30018KT 9999 SCT015
TEMPO 2112/2118 32025G38KT
PROB40
TEMPO 2118/2121 31021G32KT
ATIS : +44 1955 607 596
No reported NOTAMs for that airfield.
1 SIGMET reported for the Scottish FIR (EGPX) :
 
Severe mountain waves
EGPX SIGMET 01 VALID 211115/211515 EGRR
EGPX SCOTTISH FIR SEV MTW OBS WI N5832 W00300 - N5613 W00141 - N5555 W00433 - N5825 W00504 - N5832 W00300 FL050/150 STNR NC=



MET'MAP, your aeronautical weather chart ! - Copyright ORBIFLY December 2007 - Disclaimer

ORBIFLY MET'MAP TEAM :

Programming & Development : Alexandra Zaïnal
Concept & Development : Baudouin d'Aumeries
Co-Development & Prog : Marc-Olivier Méhu
Technical & hardware support : Manuel Goepfert

Contact : metmap@orbifly.com




SOURCES & CREDITS :

   NOAA